createdAt,value
2022-10-10T00:01:23.219Z,10.80
2022-10-10T00:03:50.136Z,10.80
2022-10-10T00:06:17.591Z,10.80
2022-10-10T00:08:47.451Z,10.80
2022-10-10T00:11:21.545Z,10.80
2022-10-10T00:13:48.881Z,10.80
2022-10-10T00:16:16.674Z,10.80
2022-10-10T00:18:45.855Z,10.70
2022-10-10T00:21:14.959Z,10.70
2022-10-10T00:23:41.765Z,10.70
2022-10-10T00:26:18.556Z,10.70
2022-10-10T00:28:51.331Z,10.70
2022-10-10T00:31:18.301Z,10.60
2022-10-10T00:33:47.794Z,10.60
2022-10-10T00:36:21.310Z,10.60
2022-10-10T00:38:52.907Z,10.60
2022-10-10T00:41:19.793Z,10.60
2022-10-10T00:44:14.200Z,10.60
2022-10-10T00:46:43.465Z,10.60
2022-10-10T00:49:18.242Z,10.50
2022-10-10T00:51:50.879Z,10.50
2022-10-10T00:54:22.009Z,10.50
2022-10-10T00:56:51.544Z,10.50
2022-10-10T00:59:19.856Z,10.50
2022-10-10T01:01:47.234Z,10.50
2022-10-10T01:04:29.969Z,10.50
2022-10-10T01:06:59.767Z,10.50
2022-10-10T01:09:28.091Z,10.40
2022-10-10T01:12:25.994Z,10.40
2022-10-10T01:15:30.297Z,10.40
2022-10-10T01:18:30.108Z,10.40
2022-10-10T01:21:21.537Z,10.30
2022-10-10T01:24:04.033Z,10.20
2022-10-10T01:26:56.933Z,10.30
2022-10-10T01:29:41.858Z,10.20
2022-10-10T01:32:46.258Z,10.20
2022-10-10T01:35:32.775Z,10.20
2022-10-10T01:38:14.285Z,10.20
2022-10-10T01:40:43.810Z,10.20
2022-10-10T01:43:13.119Z,10.20
2022-10-10T01:45:49.687Z,10.10
2022-10-10T01:48:28.025Z,10.10
2022-10-10T01:51:29.735Z,10.10
2022-10-10T01:53:59.549Z,10.10
2022-10-10T01:57:03.795Z,10.00
2022-10-10T02:00:02.703Z,10.00
2022-10-10T02:02:46.726Z,10.00
2022-10-10T02:05:19.317Z,10.00
2022-10-10T02:08:05.629Z,9.90
2022-10-10T02:10:39.990Z,9.90
2022-10-10T02:13:10.063Z,9.90
2022-10-10T02:15:43.410Z,9.80
2022-10-10T02:18:16.016Z,9.80
2022-10-10T02:20:44.567Z,9.80
2022-10-10T02:23:15.383Z,9.80
2022-10-10T02:25:50.881Z,9.80
2022-10-10T02:28:23.957Z,9.80
2022-10-10T02:30:55.424Z,9.80
2022-10-10T02:33:30.144Z,9.70
2022-10-10T02:36:00.315Z,9.70
2022-10-10T02:38:28.907Z,9.70
2022-10-10T02:40:58.180Z,9.70
2022-10-10T02:43:25.581Z,9.70
2022-10-10T02:45:52.397Z,9.70
2022-10-10T02:48:19.204Z,9.70
2022-10-10T02:50:46.061Z,9.60
2022-10-10T02:53:15.173Z,9.60
2022-10-10T02:55:41.926Z,9.70
2022-10-10T02:58:11.010Z,9.70
2022-10-10T03:00:37.741Z,9.70
2022-10-10T03:03:04.483Z,9.60
2022-10-10T03:05:31.225Z,9.60
2022-10-10T03:07:58.083Z,9.60
2022-10-10T03:10:24.827Z,9.60
2022-10-10T03:12:54.048Z,9.60
2022-10-10T03:15:20.869Z,9.60
2022-10-10T03:17:49.871Z,9.50
2022-10-10T03:20:19.089Z,9.50
2022-10-10T03:22:45.830Z,9.60
2022-10-10T03:25:12.671Z,9.50
2022-10-10T03:27:40.095Z,9.50
2022-10-10T03:30:09.909Z,9.40
2022-10-10T03:32:36.679Z,9.40
2022-10-10T03:35:03.615Z,9.40
2022-10-10T03:37:31.088Z,9.40
2022-10-10T03:39:57.830Z,9.30
2022-10-10T03:42:27.065Z,9.30
2022-10-10T03:44:53.794Z,9.20
2022-10-10T03:47:20.551Z,9.30
2022-10-10T03:49:49.642Z,9.30
2022-10-10T03:52:22.031Z,9.30
2022-10-10T03:54:53.309Z,9.30
2022-10-10T03:57:20.039Z,9.30
2022-10-10T03:59:46.874Z,9.30
2022-10-10T04:02:20.981Z,9.20
2022-10-10T04:04:47.970Z,9.20
2022-10-10T04:07:17.007Z,9.20
2022-10-10T04:09:46.240Z,9.20
2022-10-10T04:12:13.030Z,9.20
2022-10-10T04:14:39.734Z,9.20
2022-10-10T04:17:06.525Z,9.20
2022-10-10T04:19:33.234Z,9.20
2022-10-10T04:22:00.061Z,9.20
2022-10-10T04:24:26.941Z,9.20
2022-10-10T04:26:53.809Z,9.20
2022-10-10T04:29:22.807Z,9.20
2022-10-10T04:31:49.603Z,9.20
2022-10-10T04:34:16.403Z,9.20
2022-10-10T04:36:43.138Z,9.20
2022-10-10T04:39:09.877Z,9.20
2022-10-10T04:41:36.649Z,9.20
2022-10-10T04:44:08.068Z,9.20
2022-10-10T04:46:34.834Z,9.20
2022-10-10T04:49:03.667Z,9.10
2022-10-10T04:51:30.396Z,9.20
2022-10-10T04:53:59.413Z,9.10
2022-10-10T04:56:27.229Z,9.10
2022-10-10T04:58:54.127Z,9.10
2022-10-10T05:01:25.490Z,9.10
2022-10-10T05:03:52.225Z,9.10
2022-10-10T05:06:23.734Z,9.10
2022-10-10T05:08:53.121Z,9.10
2022-10-10T05:11:20.015Z,9.10
2022-10-10T05:13:51.223Z,9.10
2022-10-10T05:16:18.217Z,9.10
2022-10-10T05:18:47.100Z,9.00
2022-10-10T05:21:18.536Z,9.00
2022-10-10T05:23:45.386Z,9.00
2022-10-10T05:26:12.237Z,9.00
2022-10-10T05:28:41.232Z,9.00
2022-10-10T05:31:12.484Z,9.00
2022-10-10T05:33:39.591Z,9.00
2022-10-10T05:36:13.262Z,8.90
2022-10-10T05:38:41.198Z,8.90
2022-10-10T05:41:12.753Z,8.90
2022-10-10T05:43:39.554Z,8.90
2022-10-10T05:46:06.543Z,8.90
2022-10-10T05:48:33.688Z,8.90
2022-10-10T05:51:03.054Z,8.90
2022-10-10T05:53:32.599Z,8.90
2022-10-10T05:56:03.975Z,8.90
2022-10-10T05:58:30.883Z,8.90
2022-10-10T06:01:04.579Z,8.90
2022-10-10T06:03:31.833Z,8.80
2022-10-10T06:05:58.990Z,8.90
2022-10-10T06:08:25.812Z,8.90
2022-10-10T06:10:55.423Z,8.90
2022-10-10T06:13:24.690Z,8.90
2022-10-10T06:15:52.386Z,8.90
2022-10-10T06:18:19.196Z,8.90
2022-10-10T06:20:46.048Z,8.80
2022-10-10T06:23:12.764Z,8.80
2022-10-10T06:25:42.420Z,8.80
2022-10-10T06:28:10.784Z,8.80
2022-10-10T06:30:44.871Z,8.80
2022-10-10T06:33:12.687Z,8.80
2022-10-10T06:35:41.877Z,8.90
2022-10-10T06:38:11.496Z,8.80
2022-10-10T06:40:39.195Z,8.80
2022-10-10T06:43:12.067Z,8.90
2022-10-10T06:45:43.864Z,8.90
2022-10-10T06:48:13.886Z,8.90
2022-10-10T06:50:40.711Z,8.90
2022-10-10T06:53:09.883Z,8.90
2022-10-10T06:55:36.737Z,9.00
2022-10-10T06:58:05.856Z,9.00
2022-10-10T07:00:34.933Z,9.00
2022-10-10T07:03:03.996Z,9.00
2022-10-10T07:05:30.842Z,9.00
2022-10-10T07:07:59.867Z,9.00
2022-10-10T07:10:28.906Z,9.10
2022-10-10T07:12:55.918Z,9.10
2022-10-10T07:15:22.896Z,9.10
2022-10-10T07:17:57.042Z,9.20
2022-10-10T07:20:26.593Z,9.20
2022-10-10T07:22:54.220Z,9.30
2022-10-10T07:25:21.063Z,9.30
2022-10-10T07:27:47.980Z,9.30
2022-10-10T07:30:17.415Z,9.30
2022-10-10T07:32:46.370Z,9.50
2022-10-10T07:35:13.216Z,9.60
2022-10-10T07:37:42.777Z,9.70
2022-10-10T07:40:09.807Z,9.70
2022-10-10T07:42:38.822Z,9.70
2022-10-10T07:45:06.535Z,9.70
2022-10-10T07:47:33.318Z,9.70
2022-10-10T07:50:00.147Z,9.80
2022-10-10T07:52:26.996Z,9.90
2022-10-10T07:54:53.790Z,9.90
2022-10-10T07:57:20.569Z,9.90
2022-10-10T07:59:49.621Z,9.90
2022-10-10T08:02:16.589Z,9.80
2022-10-10T08:04:45.706Z,9.90
2022-10-10T08:07:12.560Z,9.80
2022-10-10T08:09:39.413Z,9.80
2022-10-10T08:12:08.569Z,9.90
2022-10-10T08:14:35.359Z,10.10
2022-10-10T08:17:02.185Z,10.30
2022-10-10T08:19:31.208Z,10.60
2022-10-10T08:22:00.079Z,11.10
2022-10-10T08:24:27.184Z,11.80
2022-10-10T08:26:54.163Z,12.50
2022-10-10T08:29:21.010Z,13.40
2022-10-10T08:31:47.909Z,14.10
2022-10-10T08:34:15.030Z,14.70
2022-10-10T08:36:42.230Z,15.30
2022-10-10T08:39:11.088Z,15.80
2022-10-10T08:41:53.673Z,16.40
2022-10-10T08:44:23.860Z,16.50
2022-10-10T08:46:53.099Z,16.80
2022-10-10T08:49:27.750Z,17.40
2022-10-10T08:52:29.619Z,17.80
2022-10-10T08:54:58.740Z,18.20
2022-10-10T08:57:44.227Z,18.10
2022-10-10T09:00:17.072Z,18.30
2022-10-10T09:03:03.161Z,18.70
2022-10-10T09:05:45.137Z,19.10
2022-10-10T09:08:36.386Z,19.20
2022-10-10T09:11:20.485Z,19.30
2022-10-10T09:14:02.501Z,19.60
2022-10-10T09:16:52.658Z,19.70
2022-10-10T09:19:51.975Z,19.80
2022-10-10T09:22:27.727Z,19.80
2022-10-10T09:25:16.174Z,19.60
2022-10-10T09:27:47.617Z,19.60
2022-10-10T09:30:19.040Z,19.70
2022-10-10T09:33:18.472Z,20.00
2022-10-10T09:35:48.463Z,19.70
2022-10-10T09:38:37.743Z,19.50
2022-10-10T09:41:33.525Z,19.00
2022-10-10T09:44:05.649Z,18.80
2022-10-10T09:46:32.539Z,18.50
2022-10-10T09:49:01.732Z,18.00
2022-10-10T09:51:30.702Z,17.50
2022-10-10T09:53:57.882Z,17.30
2022-10-10T09:56:38.449Z,17.00
2022-10-10T09:59:05.359Z,16.70
2022-10-10T10:01:33.056Z,16.40
2022-10-10T10:04:30.896Z,16.10
2022-10-10T10:07:36.276Z,15.90
2022-10-10T10:10:19.611Z,15.70
2022-10-10T10:12:49.835Z,15.60
2022-10-10T10:15:22.750Z,15.50
2022-10-10T10:18:28.520Z,15.50
2022-10-10T10:21:08.836Z,15.30
2022-10-10T10:23:42.351Z,15.30
2022-10-10T10:26:45.629Z,15.30
2022-10-10T10:29:27.802Z,15.30
2022-10-10T10:32:06.780Z,15.20
2022-10-10T10:34:41.214Z,15.20
2022-10-10T10:37:45.716Z,15.10
2022-10-10T10:40:21.806Z,15.10
2022-10-10T10:43:24.711Z,15.10
2022-10-10T10:46:00.619Z,15.10
2022-10-10T10:48:45.653Z,15.10
2022-10-10T10:51:35.672Z,15.10
2022-10-10T10:54:30.358Z,15.10
2022-10-10T10:57:06.813Z,15.10
2022-10-10T11:00:26.322Z,15.00
2022-10-10T11:02:55.357Z,15.00
2022-10-10T11:05:41.712Z,15.00
2022-10-10T11:08:46.385Z,15.00
2022-10-10T11:11:28.319Z,15.00
2022-10-10T11:14:04.160Z,15.00
2022-10-10T11:16:54.174Z,15.10
2022-10-10T11:19:37.113Z,15.10
2022-10-10T11:22:14.505Z,15.10
2022-10-10T11:24:53.789Z,15.20
2022-10-10T11:27:50.447Z,15.20
2022-10-10T11:30:25.837Z,15.20
2022-10-10T11:32:59.193Z,15.20
2022-10-10T11:35:40.743Z,15.30
2022-10-10T11:38:34.659Z,15.30
2022-10-10T11:41:13.619Z,15.40
2022-10-10T11:43:52.041Z,15.50
2022-10-10T11:46:41.775Z,15.50
2022-10-10T11:49:13.704Z,15.60
2022-10-10T11:51:58.083Z,15.60
2022-10-10T11:54:37.896Z,15.60
2022-10-10T11:57:13.787Z,15.60
2022-10-10T11:59:48.378Z,15.60
2022-10-10T12:02:19.007Z,15.70
2022-10-10T12:04:46.375Z,15.70
2022-10-10T12:07:33.863Z,15.70
2022-10-10T12:10:11.790Z,15.80
2022-10-10T12:12:46.443Z,15.80
2022-10-10T12:15:36.221Z,15.80
2022-10-10T12:18:09.300Z,15.80
2022-10-10T12:20:37.226Z,15.70
2022-10-10T12:23:32.605Z,15.80
2022-10-10T12:26:00.174Z,15.80
2022-10-10T12:28:36.994Z,15.80
2022-10-10T12:31:06.820Z,15.80
2022-10-10T12:33:33.661Z,15.80
2022-10-10T12:36:18.962Z,15.90
2022-10-10T12:39:08.462Z,15.90
2022-10-10T12:41:56.277Z,15.90
2022-10-10T12:44:35.539Z,15.90
2022-10-10T12:47:14.614Z,15.90
2022-10-10T12:49:53.366Z,15.90
2022-10-10T12:52:28.927Z,15.90
2022-10-10T12:55:06.914Z,15.90
2022-10-10T12:57:41.402Z,15.90
2022-10-10T13:00:23.177Z,15.90
2022-10-10T13:02:57.237Z,16.00
2022-10-10T13:05:35.030Z,16.00
2022-10-10T13:08:05.670Z,16.00
2022-10-10T13:10:33.173Z,16.00
2022-10-10T13:13:18.735Z,16.00
2022-10-10T13:15:56.833Z,16.10
2022-10-10T13:18:52.951Z,16.10
2022-10-10T13:21:35.805Z,16.10
2022-10-10T13:24:06.028Z,16.10
2022-10-10T13:26:39.688Z,16.10
2022-10-10T13:29:25.103Z,16.10
2022-10-10T13:31:54.306Z,16.20
2022-10-10T13:34:34.266Z,16.20
2022-10-10T13:37:02.782Z,16.20
2022-10-10T13:39:35.415Z,16.20
2022-10-10T13:42:03.317Z,16.30
2022-10-10T13:44:54.299Z,16.40
2022-10-10T13:47:44.564Z,16.40
2022-10-10T13:50:53.525Z,16.40
2022-10-10T13:53:32.005Z,16.40
2022-10-10T13:56:27.695Z,16.40
2022-10-10T13:59:05.903Z,16.40
2022-10-10T14:01:43.431Z,16.40
2022-10-10T14:04:12.426Z,16.40
2022-10-10T14:07:18.150Z,16.40
2022-10-10T14:09:57.474Z,16.40
2022-10-10T14:12:35.165Z,16.40
2022-10-10T14:15:24.982Z,16.40
2022-10-10T14:17:51.779Z,16.40
2022-10-10T14:20:18.498Z,16.40
2022-10-10T14:22:45.385Z,16.30
2022-10-10T14:25:12.268Z,16.30
2022-10-10T14:27:40.051Z,16.30
2022-10-10T14:30:07.347Z,16.30
2022-10-10T14:32:36.429Z,16.30
2022-10-10T14:35:05.909Z,16.30
2022-10-10T14:37:38.705Z,16.30
2022-10-10T14:40:22.674Z,16.30
2022-10-10T14:42:49.535Z,16.30
2022-10-10T14:45:17.541Z,16.30
2022-10-10T14:47:47.093Z,16.30
2022-10-10T14:50:17.301Z,16.30
2022-10-10T14:52:44.438Z,16.30
2022-10-10T14:55:13.962Z,16.30
2022-10-10T14:57:41.667Z,16.30
2022-10-10T15:00:16.712Z,16.20
2022-10-10T15:02:46.108Z,16.20
2022-10-10T15:05:13.847Z,16.20
2022-10-10T15:07:44.005Z,16.20
2022-10-10T15:10:33.115Z,16.20
2022-10-10T15:13:03.287Z,16.30
2022-10-10T15:15:30.526Z,16.30
2022-10-10T15:18:00.726Z,16.30
2022-10-10T15:20:31.415Z,16.30
2022-10-10T15:23:04.917Z,16.20
2022-10-10T15:25:34.062Z,16.20
2022-10-10T15:28:03.103Z,16.20
2022-10-10T15:30:30.157Z,16.10
2022-10-10T15:32:56.930Z,16.10
2022-10-10T15:35:28.420Z,16.10
2022-10-10T15:38:05.330Z,16.10
2022-10-10T15:40:34.342Z,16.00
2022-10-10T15:43:01.192Z,16.00
2022-10-10T15:45:51.409Z,16.00
2022-10-10T15:48:19.398Z,16.00
2022-10-10T15:50:48.913Z,16.00
2022-10-10T15:53:18.790Z,16.00
2022-10-10T15:55:46.892Z,15.90
2022-10-10T15:58:15.510Z,15.90
2022-10-10T16:00:43.638Z,15.90
2022-10-10T16:03:10.957Z,15.90
2022-10-10T16:05:39.558Z,15.80
2022-10-10T16:08:14.428Z,15.80
2022-10-10T16:10:43.136Z,15.80
2022-10-10T16:13:12.643Z,15.80
2022-10-10T16:15:39.462Z,15.70
2022-10-10T16:18:06.419Z,15.70
2022-10-10T16:20:37.767Z,15.70
2022-10-10T16:23:04.565Z,15.70
2022-10-10T16:25:33.465Z,15.70
2022-10-10T16:28:00.383Z,15.70
2022-10-10T16:30:27.205Z,15.60
2022-10-10T16:32:56.433Z,15.60
2022-10-10T16:35:25.536Z,15.60
2022-10-10T16:38:00.196Z,15.50
2022-10-10T16:40:29.675Z,15.50
2022-10-10T16:42:58.711Z,15.50
2022-10-10T16:45:25.520Z,15.50
2022-10-10T16:47:52.410Z,15.40
2022-10-10T16:50:21.614Z,15.40
2022-10-10T16:52:53.988Z,15.40
2022-10-10T16:55:25.114Z,15.40
2022-10-10T16:57:59.157Z,15.40
2022-10-10T17:00:30.722Z,15.30
2022-10-10T17:02:57.654Z,15.30
2022-10-10T17:05:24.421Z,15.30
2022-10-10T17:07:51.361Z,15.30
2022-10-10T17:10:18.178Z,15.30
2022-10-10T17:12:45.013Z,15.20
2022-10-10T17:15:11.841Z,15.20
2022-10-10T17:17:38.666Z,15.20
2022-10-10T17:20:08.556Z,15.10
2022-10-10T17:22:36.162Z,15.10
2022-10-10T17:25:07.767Z,15.10
2022-10-10T17:27:35.858Z,15.10
2022-10-10T17:30:02.747Z,15.10
2022-10-10T17:32:29.755Z,15.00
2022-10-10T17:34:56.766Z,15.00
2022-10-10T17:37:23.832Z,15.00
2022-10-10T17:39:54.950Z,15.00
2022-10-10T17:42:21.860Z,15.00
2022-10-10T17:44:52.467Z,15.00
2022-10-10T17:47:25.070Z,15.00
2022-10-10T17:49:56.559Z,14.90
2022-10-10T17:52:24.873Z,14.90
2022-10-10T17:54:51.788Z,14.90
2022-10-10T17:57:19.337Z,14.80
2022-10-10T17:59:48.461Z,14.80
2022-10-10T18:02:18.026Z,14.80
2022-10-10T18:04:45.576Z,14.80
2022-10-10T18:07:18.624Z,14.80
2022-10-10T18:09:46.346Z,14.70
2022-10-10T18:12:13.214Z,14.70
2022-10-10T18:14:42.577Z,14.70
2022-10-10T18:17:10.018Z,14.70
2022-10-10T18:19:37.188Z,14.60
2022-10-10T18:22:06.733Z,14.60
2022-10-10T18:24:33.640Z,14.60
2022-10-10T18:27:00.550Z,14.50
2022-10-10T18:29:27.410Z,14.50
2022-10-10T18:31:56.310Z,14.40
2022-10-10T18:34:23.343Z,14.40
2022-10-10T18:36:52.394Z,14.40
2022-10-10T18:39:19.824Z,14.40
2022-10-10T18:41:46.907Z,14.40
2022-10-10T18:44:16.877Z,14.30
2022-10-10T18:46:46.275Z,14.30
2022-10-10T18:49:14.801Z,14.30
2022-10-10T18:51:44.177Z,14.20
2022-10-10T18:54:18.901Z,14.30
2022-10-10T18:56:49.445Z,14.30
2022-10-10T18:59:21.640Z,14.30
2022-10-10T19:01:52.364Z,14.30
2022-10-10T19:04:20.670Z,14.20
2022-10-10T19:06:54.677Z,14.20
2022-10-10T19:09:26.832Z,14.20
2022-10-10T19:11:56.089Z,14.20
2022-10-10T19:14:25.329Z,14.20
2022-10-10T19:16:52.230Z,14.20
2022-10-10T19:19:19.527Z,14.20
2022-10-10T19:21:47.969Z,14.20
2022-10-10T19:24:19.400Z,14.20
2022-10-10T19:26:51.909Z,14.20
2022-10-10T19:29:19.402Z,14.20
2022-10-10T19:31:46.226Z,14.20
2022-10-10T19:34:13.452Z,14.20
2022-10-10T19:36:42.224Z,14.20
2022-10-10T19:39:09.382Z,14.20
2022-10-10T19:41:38.545Z,14.20
2022-10-10T19:44:10.081Z,14.20
2022-10-10T19:46:37.760Z,14.20
2022-10-10T19:49:07.279Z,14.20
2022-10-10T19:51:36.327Z,14.20
2022-10-10T19:54:05.101Z,14.20
2022-10-10T19:56:31.876Z,14.20
2022-10-10T19:59:00.442Z,14.10
2022-10-10T20:01:30.135Z,14.20
2022-10-10T20:03:58.631Z,14.20
2022-10-10T20:06:28.625Z,14.20
2022-10-10T20:08:56.102Z,14.20
2022-10-10T20:11:23.492Z,14.20
2022-10-10T20:13:55.308Z,14.20
2022-10-10T20:16:26.857Z,14.20
2022-10-10T20:18:57.387Z,14.20
2022-10-10T20:21:32.267Z,14.20
2022-10-10T20:24:03.863Z,14.20
2022-10-10T20:26:30.729Z,14.20
2022-10-10T20:29:00.131Z,14.20
2022-10-10T20:31:32.246Z,14.20
2022-10-10T20:34:00.863Z,14.30
2022-10-10T20:36:29.966Z,14.30
2022-10-10T20:39:07.789Z,14.30
2022-10-10T20:41:38.612Z,14.30
2022-10-10T20:44:06.880Z,14.30
2022-10-10T20:46:38.207Z,14.30
2022-10-10T20:49:11.371Z,14.20
2022-10-10T20:51:38.337Z,14.20
2022-10-10T20:54:06.532Z,14.20
2022-10-10T20:56:37.523Z,14.30
2022-10-10T20:59:04.366Z,14.20
2022-10-10T21:01:31.270Z,14.20
2022-10-10T21:03:58.762Z,14.20
2022-10-10T21:06:31.788Z,14.30
2022-10-10T21:09:03.889Z,14.30
2022-10-10T21:11:31.025Z,14.30
2022-10-10T21:13:59.656Z,14.30
2022-10-10T21:16:35.567Z,14.30
2022-10-10T21:19:03.455Z,14.30
2022-10-10T21:21:32.655Z,14.30
2022-10-10T21:24:06.261Z,14.40
2022-10-10T21:26:33.638Z,14.40
2022-10-10T21:29:03.820Z,14.40
2022-10-10T21:31:36.758Z,14.40
2022-10-10T21:34:05.957Z,14.40
2022-10-10T21:36:36.643Z,14.40
2022-10-10T21:39:08.366Z,14.40
2022-10-10T21:41:36.623Z,14.40
2022-10-10T21:44:08.184Z,14.40
2022-10-10T21:46:37.945Z,14.40
2022-10-10T21:49:08.427Z,14.40
2022-10-10T21:51:39.987Z,14.40
2022-10-10T21:54:11.874Z,14.40
2022-10-10T21:56:39.021Z,14.40
2022-10-10T21:59:06.392Z,14.40
2022-10-10T22:01:33.561Z,14.40
2022-10-10T22:04:03.834Z,14.40
2022-10-10T22:06:33.646Z,14.40
2022-10-10T22:09:02.690Z,14.40
2022-10-10T22:11:34.409Z,14.30
2022-10-10T22:14:02.676Z,14.40
2022-10-10T22:16:30.463Z,14.40
2022-10-10T22:19:00.320Z,14.30
2022-10-10T22:21:32.069Z,14.30
2022-10-10T22:24:04.987Z,14.30
2022-10-10T22:26:36.482Z,14.30
2022-10-10T22:29:04.128Z,14.30
2022-10-10T22:31:31.027Z,14.30
2022-10-10T22:34:00.533Z,14.30
2022-10-10T22:36:29.467Z,14.30
2022-10-10T22:39:00.834Z,14.30
2022-10-10T22:41:27.887Z,14.30
2022-10-10T22:43:54.722Z,14.30
2022-10-10T22:46:21.639Z,14.30
2022-10-10T22:48:48.407Z,14.30
2022-10-10T22:51:17.604Z,14.20
2022-10-10T22:53:48.171Z,14.20
2022-10-10T22:56:20.047Z,14.10
2022-10-10T22:58:49.160Z,14.10
2022-10-10T23:01:23.344Z,14.10
2022-10-10T23:03:53.471Z,14.10
2022-10-10T23:06:20.293Z,14.10
2022-10-10T23:08:49.369Z,14.00
2022-10-10T23:11:16.223Z,14.00
2022-10-10T23:13:45.674Z,13.90
2022-10-10T23:16:16.774Z,13.90
2022-10-10T23:18:43.560Z,13.90
2022-10-10T23:21:10.418Z,13.90
2022-10-10T23:23:37.284Z,13.80
2022-10-10T23:26:07.055Z,13.80
2022-10-10T23:28:35.071Z,13.80
2022-10-10T23:31:05.016Z,13.80
2022-10-10T23:33:35.965Z,13.70
2022-10-10T23:36:10.451Z,13.70
2022-10-10T23:38:38.103Z,13.60
2022-10-10T23:41:05.799Z,13.60
2022-10-10T23:43:32.724Z,13.60
2022-10-10T23:45:59.453Z,13.60
2022-10-10T23:48:26.318Z,13.50
2022-10-10T23:50:55.227Z,13.50
2022-10-10T23:53:22.052Z,13.40
2022-10-10T23:55:49.009Z,13.40
2022-10-10T23:58:16.538Z,13.40
